createdAt,value
2023-03-03T00:00:42.440Z,101468.56
2023-03-03T00:03:21.777Z,101462.59
2023-03-03T00:05:48.877Z,101468.75
2023-03-03T00:08:15.806Z,101454.81
2023-03-03T00:10:41.943Z,101457.31
2023-03-03T00:13:20.245Z,101467.44
2023-03-03T00:15:47.850Z,101462.38
2023-03-03T00:18:34.485Z,101462.88
2023-03-03T00:21:02.256Z,101462.03
2023-03-03T00:23:35.978Z,101468.16
2023-03-03T00:26:05.188Z,101479.03
2023-03-03T00:28:43.692Z,101468.88
2023-03-03T00:31:19.596Z,101472.81
2023-03-03T00:33:53.917Z,101468.88
2023-03-03T00:36:27.961Z,101456.28
2023-03-03T00:38:57.270Z,101459.41
2023-03-03T00:41:26.100Z,101461.31
2023-03-03T00:43:53.762Z,101464.78
2023-03-03T00:46:22.298Z,101460.03
2023-03-03T00:48:50.304Z,101460.50
2023-03-03T00:51:22.477Z,101460.66
2023-03-03T00:53:50.124Z,101459.78
2023-03-03T00:56:16.598Z,101446.09
2023-03-03T00:58:47.393Z,101446.44
2023-03-03T01:01:17.260Z,101447.03
2023-03-03T01:03:47.849Z,101445.44
2023-03-03T01:06:14.602Z,101444.59
2023-03-03T01:08:41.041Z,101440.97
2023-03-03T01:11:15.833Z,101458.44
2023-03-03T01:13:46.448Z,101460.72
2023-03-03T01:16:12.903Z,101445.59
2023-03-03T01:18:41.130Z,101443.09
2023-03-03T01:21:08.662Z,101439.41
2023-03-03T01:23:35.387Z,101441.72
2023-03-03T01:26:01.742Z,101427.84
2023-03-03T01:28:28.163Z,101432.31
2023-03-03T01:30:54.438Z,101419.03
2023-03-03T01:33:20.951Z,101423.06
2023-03-03T01:35:47.942Z,101421.63
2023-03-03T01:38:15.243Z,101427.38
2023-03-03T01:40:41.556Z,101424.31
2023-03-03T01:43:08.028Z,101418.56
2023-03-03T01:45:42.935Z,101417.50
2023-03-03T01:48:36.860Z,101424.16
2023-03-03T01:51:22.338Z,101415.06
2023-03-03T01:53:52.228Z,101417.50
2023-03-03T01:56:18.605Z,101412.47
2023-03-03T01:58:52.394Z,101410.50
2023-03-03T02:01:22.303Z,101411.41
2023-03-03T02:03:49.844Z,101411.06
2023-03-03T02:06:19.524Z,101399.53
2023-03-03T02:08:53.378Z,101402.41
2023-03-03T02:11:21.720Z,101410.50
2023-03-03T02:13:48.353Z,101407.34
2023-03-03T02:16:15.719Z,101400.28
2023-03-03T02:18:42.405Z,101401.75
2023-03-03T02:21:16.021Z,101398.34
2023-03-03T02:23:59.479Z,101403.28
2023-03-03T02:26:28.276Z,101395.31
2023-03-03T02:29:00.248Z,101408.69
2023-03-03T02:31:29.965Z,101415.44
2023-03-03T02:33:57.044Z,101419.19
2023-03-03T02:36:33.039Z,101422.19
2023-03-03T02:39:19.609Z,101424.41
2023-03-03T02:42:04.690Z,101434.94
2023-03-03T02:44:37.968Z,101436.06
2023-03-03T02:47:04.704Z,101433.59
2023-03-03T02:49:33.658Z,101435.91
2023-03-03T02:52:01.595Z,101432.03
2023-03-03T02:54:30.244Z,101427.13
2023-03-03T02:56:58.600Z,101433.97
2023-03-03T02:59:26.716Z,101429.66
2023-03-03T03:01:54.919Z,101434.34
2023-03-03T03:04:26.442Z,101436.72
2023-03-03T03:06:54.391Z,101438.75
2023-03-03T03:09:24.187Z,101439.38
2023-03-03T03:11:52.030Z,101434.06
2023-03-03T03:14:22.662Z,101436.84
2023-03-03T03:16:49.395Z,101428.00
2023-03-03T03:19:15.866Z,101421.63
2023-03-03T03:21:43.602Z,101436.94
2023-03-03T03:24:10.738Z,101428.94
2023-03-03T03:26:40.937Z,101431.84
2023-03-03T03:29:07.791Z,101442.09
2023-03-03T03:31:34.089Z,101444.59
2023-03-03T03:34:02.859Z,101439.16
2023-03-03T03:36:29.685Z,101430.06
2023-03-03T03:38:56.542Z,101432.09
2023-03-03T03:41:22.713Z,101416.47
2023-03-03T03:43:49.290Z,101416.66
2023-03-03T03:46:15.839Z,101410.06
2023-03-03T03:48:43.192Z,101409.06
2023-03-03T03:51:12.151Z,101406.47
2023-03-03T03:53:39.692Z,101401.19
2023-03-03T03:56:06.320Z,101400.09
2023-03-03T03:58:33.334Z,101402.81
2023-03-03T04:01:05.044Z,101411.13
2023-03-03T04:03:33.889Z,101411.69
2023-03-03T04:06:01.153Z,101402.72
2023-03-03T04:08:27.864Z,101404.38
2023-03-03T04:10:54.239Z,101406.44
2023-03-03T04:13:21.323Z,101411.09
2023-03-03T04:15:47.678Z,101403.78
2023-03-03T04:18:14.319Z,101400.97
2023-03-03T04:20:41.184Z,101395.19
2023-03-03T04:23:08.013Z,101391.69
2023-03-03T04:25:34.274Z,101388.22
2023-03-03T04:28:03.951Z,101381.09
2023-03-03T04:30:32.612Z,101384.75
2023-03-03T04:32:59.353Z,101378.81
2023-03-03T04:35:26.852Z,101377.72
2023-03-03T04:37:53.662Z,101371.75
2023-03-03T04:40:20.288Z,101382.41
2023-03-03T04:42:49.627Z,101385.94
2023-03-03T04:45:16.145Z,101381.78
2023-03-03T04:47:44.612Z,101384.69
2023-03-03T04:50:11.729Z,101384.75
2023-03-03T04:52:38.426Z,101379.13
2023-03-03T04:55:09.311Z,101384.13
2023-03-03T04:57:37.454Z,101381.41
2023-03-03T05:00:05.905Z,101379.66
2023-03-03T05:02:32.598Z,101390.16
2023-03-03T05:04:59.477Z,101384.59
2023-03-03T05:07:26.035Z,101379.28
2023-03-03T05:09:52.196Z,101383.66
2023-03-03T05:12:19.443Z,101395.75
2023-03-03T05:14:45.776Z,101389.94
2023-03-03T05:17:12.506Z,101389.16
2023-03-03T05:19:38.856Z,101398.75
2023-03-03T05:22:05.029Z,101393.31
2023-03-03T05:24:31.584Z,101383.81
2023-03-03T05:26:57.964Z,101380.84
2023-03-03T05:29:24.429Z,101382.94
2023-03-03T05:31:50.609Z,101379.78
2023-03-03T05:34:17.123Z,101375.75
2023-03-03T05:36:43.487Z,101382.31
2023-03-03T05:39:10.239Z,101381.16
2023-03-03T05:41:36.723Z,101379.13
2023-03-03T05:44:03.761Z,101390.28
2023-03-03T05:46:30.179Z,101395.16
2023-03-03T05:48:57.024Z,101397.75
2023-03-03T05:51:23.342Z,101398.31
2023-03-03T05:53:50.209Z,101393.31
2023-03-03T05:56:17.071Z,101397.94
2023-03-03T05:58:43.809Z,101413.81
2023-03-03T06:01:11.090Z,101421.09
2023-03-03T06:03:38.113Z,101431.56
2023-03-03T06:06:04.635Z,101434.16
2023-03-03T06:08:32.019Z,101440.66
2023-03-03T06:10:58.548Z,101449.53
2023-03-03T06:13:25.292Z,101456.50
2023-03-03T06:15:51.640Z,101452.97
2023-03-03T06:18:18.317Z,101441.84
2023-03-03T06:20:44.566Z,101433.34
2023-03-03T06:23:11.035Z,101415.00
2023-03-03T06:25:38.591Z,101410.94
2023-03-03T06:28:05.128Z,101417.88
2023-03-03T06:30:31.617Z,101423.19
2023-03-03T06:32:58.339Z,101422.69
2023-03-03T06:35:24.529Z,101432.19
2023-03-03T06:37:51.477Z,101433.78
2023-03-03T06:40:17.801Z,101436.44
2023-03-03T06:42:44.353Z,101433.47
2023-03-03T06:45:11.022Z,101434.91
2023-03-03T06:47:37.731Z,101429.34
2023-03-03T06:50:04.392Z,101441.97
2023-03-03T06:52:30.907Z,101442.31
2023-03-03T06:55:00.142Z,101439.31
2023-03-03T06:57:32.152Z,101431.84
2023-03-03T07:00:19.867Z,101436.97
2023-03-03T07:02:53.039Z,101432.09
2023-03-03T07:05:19.583Z,101428.63
2023-03-03T07:07:46.164Z,101426.59
2023-03-03T07:10:23.087Z,101428.16
2023-03-03T07:12:49.993Z,101430.97
2023-03-03T07:15:35.186Z,101434.22
2023-03-03T07:18:02.652Z,101439.22
2023-03-03T07:20:36.081Z,101443.66
2023-03-03T07:23:20.290Z,101442.91
2023-03-03T07:25:47.824Z,101448.25
2023-03-03T07:28:29.362Z,101453.06
2023-03-03T07:30:57.448Z,101451.13
2023-03-03T07:33:28.233Z,101456.69
2023-03-03T07:35:57.176Z,101458.56
2023-03-03T07:38:45.076Z,101457.19
2023-03-03T07:41:20.284Z,101457.50
2023-03-03T07:44:09.425Z,101458.53
2023-03-03T07:46:44.430Z,101448.28
2023-03-03T07:49:35.063Z,101460.03
2023-03-03T07:52:22.774Z,101463.75
2023-03-03T07:54:50.033Z,101465.63
2023-03-03T07:57:50.927Z,101473.34
2023-03-03T08:00:17.461Z,101479.69
2023-03-03T08:02:51.467Z,101481.44
2023-03-03T08:05:47.669Z,101487.03
2023-03-03T08:08:17.255Z,101481.63
2023-03-03T08:10:48.119Z,101486.09
2023-03-03T08:13:21.691Z,101478.00
2023-03-03T08:16:02.783Z,101477.38
2023-03-03T08:18:35.466Z,101481.38
2023-03-03T08:21:24.020Z,101477.47
2023-03-03T08:23:52.808Z,101471.88
2023-03-03T08:26:21.242Z,101486.78
2023-03-03T08:28:47.796Z,101484.97
2023-03-03T08:31:24.888Z,101481.00
2023-03-03T08:33:58.371Z,101481.94
2023-03-03T08:36:25.078Z,101481.53
2023-03-03T08:38:52.152Z,101488.72
2023-03-03T08:41:18.617Z,101490.97
2023-03-03T08:43:44.978Z,101494.34
2023-03-03T08:46:12.155Z,101495.28
2023-03-03T08:48:40.494Z,101489.97
2023-03-03T08:51:32.943Z,101489.84
2023-03-03T08:53:59.993Z,101489.22
2023-03-03T08:56:26.218Z,101479.28
2023-03-03T08:59:02.219Z,101482.63
2023-03-03T09:01:32.043Z,101483.59
2023-03-03T09:03:59.225Z,101484.13
2023-03-03T09:06:25.665Z,101480.53
2023-03-03T09:08:54.298Z,101490.03
2023-03-03T09:11:27.064Z,101485.72
2023-03-03T09:14:27.401Z,101479.66
2023-03-03T09:16:56.140Z,101469.75
2023-03-03T09:19:22.768Z,101474.84
2023-03-03T09:21:51.460Z,101476.75
2023-03-03T09:24:35.497Z,101481.94
2023-03-03T09:27:02.397Z,101484.03
2023-03-03T09:29:30.952Z,101487.09
2023-03-03T09:32:08.211Z,101482.56
2023-03-03T09:34:42.412Z,101473.66
2023-03-03T09:37:22.551Z,101476.41
2023-03-03T09:39:55.070Z,101473.03
2023-03-03T09:42:59.975Z,101476.34
2023-03-03T09:45:45.524Z,101480.28
2023-03-03T09:48:22.328Z,101487.25
2023-03-03T09:50:54.975Z,101484.81
2023-03-03T09:53:50.859Z,101495.06
2023-03-03T09:56:33.331Z,101489.63
2023-03-03T09:59:29.790Z,101498.03
2023-03-03T10:02:33.768Z,101490.00
2023-03-03T10:05:14.432Z,101490.16
2023-03-03T10:07:59.833Z,101496.84
2023-03-03T10:10:36.588Z,101486.44
2023-03-03T10:13:36.775Z,101490.91
2023-03-03T10:16:31.482Z,101483.25
2023-03-03T10:19:01.780Z,101497.59
2023-03-03T10:21:36.606Z,101491.47
2023-03-03T10:24:27.980Z,101498.03
2023-03-03T10:27:13.752Z,101496.75
2023-03-03T10:29:40.682Z,101495.69
2023-03-03T10:32:32.245Z,101501.03
2023-03-03T10:35:31.567Z,101492.44
2023-03-03T10:38:22.093Z,101494.09
2023-03-03T10:41:28.082Z,101486.63
2023-03-03T10:43:57.877Z,101489.84
2023-03-03T10:46:54.519Z,101481.81
2023-03-03T10:49:32.361Z,101492.19
2023-03-03T10:52:02.078Z,101493.81
2023-03-03T10:54:56.390Z,101484.41
2023-03-03T10:57:55.905Z,101487.41
2023-03-03T11:00:30.475Z,101468.09
2023-03-03T11:03:31.002Z,101468.69
2023-03-03T11:06:00.390Z,101472.66
2023-03-03T11:08:34.586Z,101474.91
2023-03-03T11:11:21.112Z,101476.28
2023-03-03T11:14:10.344Z,101463.41
2023-03-03T11:16:46.553Z,101459.53
2023-03-03T11:19:35.064Z,101460.22
2023-03-03T11:22:28.581Z,101450.22
2023-03-03T11:25:11.172Z,101442.06
2023-03-03T11:27:40.133Z,101442.84
2023-03-03T11:30:06.556Z,101432.25
2023-03-03T11:32:45.047Z,101428.63
2023-03-03T11:35:23.845Z,101424.81
2023-03-03T11:38:05.302Z,101427.66
2023-03-03T11:40:45.180Z,101420.66
2023-03-03T11:43:44.180Z,101426.38
2023-03-03T11:46:31.497Z,101423.25
2023-03-03T11:49:21.510Z,101418.59
2023-03-03T11:52:06.740Z,101413.50
2023-03-03T11:54:50.762Z,101408.22
2023-03-03T11:57:36.225Z,101407.88
2023-03-03T12:00:15.465Z,101412.97
2023-03-03T12:03:03.915Z,101418.59
2023-03-03T12:06:01.549Z,101412.47
2023-03-03T12:09:08.571Z,101413.66
2023-03-03T12:11:43.739Z,101408.53
2023-03-03T12:14:55.582Z,101403.78
2023-03-03T12:17:55.046Z,101407.56
2023-03-03T12:21:11.396Z,101402.75
2023-03-03T12:24:24.596Z,101400.16
2023-03-03T12:27:34.946Z,101401.25
2023-03-03T12:30:15.492Z,101391.56
2023-03-03T12:33:02.835Z,101394.84
2023-03-03T12:35:52.665Z,101384.06
2023-03-03T12:38:41.119Z,101397.50
2023-03-03T12:42:04.428Z,101391.69
2023-03-03T12:45:14.937Z,101376.94
2023-03-03T12:48:01.039Z,101387.34
2023-03-03T12:51:39.116Z,101390.88
2023-03-03T12:55:19.838Z,101377.84
2023-03-03T12:58:24.938Z,101366.16
2023-03-03T13:01:35.602Z,101360.91
2023-03-03T13:04:51.325Z,101363.47
2023-03-03T13:08:39.320Z,101377.28
2023-03-03T13:15:10.637Z,101378.22
2023-03-03T13:18:15.323Z,101357.53
2023-03-03T13:20:52.306Z,101377.28
2023-03-03T13:23:43.131Z,101382.91
2023-03-03T13:26:39.004Z,101385.59
2023-03-03T13:29:15.278Z,101382.63
2023-03-03T13:36:17.871Z,101356.59
2023-03-03T13:38:51.508Z,101369.81
2023-03-03T13:41:28.941Z,101366.56
2023-03-03T13:44:09.132Z,101375.84
2023-03-03T13:46:40.047Z,101377.59
2023-03-03T13:49:24.880Z,101369.63
2023-03-03T13:52:01.895Z,101379.13
2023-03-03T13:54:37.712Z,101369.06
2023-03-03T13:57:39.326Z,101365.81
2023-03-03T14:00:33.547Z,101357.38
2023-03-03T14:03:28.582Z,101354.88
2023-03-03T14:06:04.513Z,101349.03
2023-03-03T14:08:58.640Z,101350.84
2023-03-03T14:11:31.678Z,101347.88
2023-03-03T14:13:58.008Z,101345.78
2023-03-03T14:16:46.632Z,101344.25
2023-03-03T14:19:19.769Z,101343.75
2023-03-03T14:22:05.291Z,101336.75
2023-03-03T14:24:31.801Z,101334.66
2023-03-03T14:26:59.981Z,101332.25
2023-03-03T14:29:39.375Z,101334.56
2023-03-03T14:32:25.149Z,101327.19
2023-03-03T14:35:00.830Z,101328.06
2023-03-03T14:37:41.435Z,101324.03
2023-03-03T14:40:19.849Z,101319.72
2023-03-03T14:42:58.734Z,101331.41
2023-03-03T14:45:41.639Z,101316.66
2023-03-03T14:48:17.788Z,101312.81
2023-03-03T14:51:00.232Z,101321.53
2023-03-03T14:53:42.318Z,101315.13
2023-03-03T14:56:33.617Z,101316.59
2023-03-03T14:59:19.468Z,101304.81
2023-03-03T15:01:46.724Z,101307.78
2023-03-03T15:04:16.486Z,101306.97
2023-03-03T15:06:50.844Z,101307.16
2023-03-03T15:09:42.078Z,101314.84
2023-03-03T15:12:39.954Z,101317.44
2023-03-03T15:15:07.028Z,101306.72
2023-03-03T15:17:54.184Z,101308.16
2023-03-03T15:20:31.481Z,101309.47
2023-03-03T15:23:23.787Z,101304.88
2023-03-03T15:26:11.928Z,101301.81
2023-03-03T15:29:09.044Z,101291.28
2023-03-03T15:32:11.553Z,101287.75
2023-03-03T15:34:59.198Z,101282.47
2023-03-03T15:37:44.040Z,101298.56
2023-03-03T15:40:37.807Z,101290.13
2023-03-03T15:43:44.201Z,101285.81
2023-03-03T15:46:30.917Z,101285.06
2023-03-03T15:49:06.512Z,101291.09
2023-03-03T15:52:21.809Z,101276.16
2023-03-03T15:55:10.340Z,101279.22
2023-03-03T15:57:55.602Z,101283.69
2023-03-03T16:00:47.894Z,101283.69
2023-03-03T16:03:25.873Z,101286.06
2023-03-03T16:05:57.125Z,101269.31
2023-03-03T16:08:51.718Z,101269.41
2023-03-03T16:11:25.620Z,101274.22
2023-03-03T16:14:15.156Z,101276.91
2023-03-03T16:16:59.865Z,101282.72
2023-03-03T16:19:37.077Z,101284.22
2023-03-03T16:22:32.999Z,101277.38
2023-03-03T16:25:18.193Z,101288.25
2023-03-03T16:27:47.770Z,101286.44
2023-03-03T16:30:36.027Z,101282.22
2023-03-03T16:33:18.972Z,101288.81
2023-03-03T16:35:51.304Z,101289.00
2023-03-03T16:38:20.877Z,101286.59
2023-03-03T16:40:57.807Z,101292.63
2023-03-03T16:43:50.569Z,101291.22
2023-03-03T16:46:41.156Z,101294.75
2023-03-03T16:49:26.564Z,101291.63
2023-03-03T16:52:16.317Z,101285.00
2023-03-03T16:55:14.804Z,101279.53
2023-03-03T16:58:19.287Z,101273.47
2023-03-03T17:00:55.164Z,101280.38
2023-03-03T17:03:59.130Z,101283.50
2023-03-03T17:06:40.571Z,101280.59
2023-03-03T17:09:06.710Z,101284.63
2023-03-03T17:11:41.974Z,101284.91
2023-03-03T17:14:14.311Z,101282.13
2023-03-03T17:17:22.314Z,101288.34
2023-03-03T17:20:07.944Z,101286.81
2023-03-03T17:22:53.984Z,101287.41
2023-03-03T17:25:41.272Z,101296.22
2023-03-03T17:28:20.041Z,101290.84
2023-03-03T17:31:11.434Z,101294.97
2023-03-03T17:33:40.956Z,101295.66
2023-03-03T17:36:28.938Z,101287.03
2023-03-03T17:39:33.871Z,101287.13
2023-03-03T17:42:06.590Z,101289.22
2023-03-03T17:44:38.885Z,101288.59
2023-03-03T17:47:11.686Z,101284.72
2023-03-03T17:49:56.914Z,101286.28
2023-03-03T17:52:38.353Z,101280.91
2023-03-03T17:55:30.009Z,101282.31
2023-03-03T17:58:18.156Z,101283.69
2023-03-03T18:01:00.014Z,101280.59
2023-03-03T18:03:44.973Z,101277.66
2023-03-03T18:06:23.899Z,101283.19
2023-03-03T18:09:28.566Z,101289.03
2023-03-03T18:12:17.294Z,101287.94
2023-03-03T18:14:43.445Z,101280.00
2023-03-03T18:17:09.908Z,101286.91
2023-03-03T18:20:07.500Z,101283.09
2023-03-03T18:22:45.041Z,101277.06
2023-03-03T18:25:14.700Z,101271.97
2023-03-03T18:27:46.583Z,101270.59
2023-03-03T18:30:32.514Z,101273.19
2023-03-03T18:33:08.545Z,101274.06
2023-03-03T18:35:39.078Z,101267.03
2023-03-03T18:38:14.880Z,101272.56
2023-03-03T18:41:02.987Z,101273.25
2023-03-03T18:43:43.335Z,101261.16
2023-03-03T18:46:22.111Z,101273.69
2023-03-03T18:49:05.266Z,101266.59
2023-03-03T18:52:12.462Z,101279.47
2023-03-03T18:54:40.613Z,101270.56
2023-03-03T18:57:16.815Z,101268.41
2023-03-03T18:59:54.921Z,101265.84
2023-03-03T19:02:27.663Z,101261.09
2023-03-03T19:05:08.309Z,101267.81
2023-03-03T19:07:41.114Z,101269.81
2023-03-03T19:10:20.018Z,101262.81
2023-03-03T19:12:46.995Z,101270.16
2023-03-03T19:15:28.998Z,101264.03
2023-03-03T19:18:18.005Z,101259.47
2023-03-03T19:21:37.428Z,101265.84
2023-03-03T19:24:43.804Z,101264.53
2023-03-03T19:27:33.267Z,101254.09
2023-03-03T19:33:52.907Z,101242.47
2023-03-03T19:36:54.314Z,101252.81
2023-03-03T19:39:21.774Z,101246.19
2023-03-03T19:41:59.874Z,101249.09
2023-03-03T19:44:40.527Z,101252.22
2023-03-03T19:47:31.032Z,101245.13
2023-03-03T19:50:23.148Z,101246.19
2023-03-03T19:53:02.091Z,101247.28
2023-03-03T19:56:12.684Z,101242.91
2023-03-03T19:59:20.028Z,101245.50
2023-03-03T20:02:18.533Z,101232.03
2023-03-03T20:05:15.652Z,101242.56
2023-03-03T20:07:58.049Z,101236.34
2023-03-03T20:10:33.602Z,101237.88
2023-03-03T20:13:39.915Z,101230.03
2023-03-03T20:16:27.060Z,101237.72
2023-03-03T20:19:08.794Z,101234.78
2023-03-03T20:22:11.465Z,101230.13
2023-03-03T20:25:41.540Z,101231.16
2023-03-03T20:28:44.408Z,101221.75
2023-03-03T20:31:42.191Z,101201.66
2023-03-03T20:34:13.579Z,101208.06
2023-03-03T20:36:55.379Z,101218.56
2023-03-03T20:39:47.223Z,101214.53
2023-03-03T20:42:38.050Z,101211.66
2023-03-03T20:45:31.517Z,101199.94
2023-03-03T20:48:26.072Z,101197.09
2023-03-03T20:50:55.563Z,101196.56
2023-03-03T20:53:34.276Z,101191.38
2023-03-03T20:56:09.853Z,101191.13
2023-03-03T20:58:54.926Z,101182.31
2023-03-03T21:02:12.070Z,101177.66
2023-03-03T21:04:41.794Z,101156.03
2023-03-03T21:07:24.267Z,101158.19
2023-03-03T21:10:10.357Z,101169.59
2023-03-03T21:12:37.396Z,101164.22
2023-03-03T21:15:19.391Z,101167.84
2023-03-03T21:17:46.635Z,101156.28
2023-03-03T21:20:31.226Z,101157.06
2023-03-03T21:22:59.684Z,101146.97
2023-03-03T21:25:53.009Z,101140.06
2023-03-03T21:28:28.687Z,101139.44
2023-03-03T21:31:00.641Z,101129.69
2023-03-03T21:33:50.218Z,101130.38
2023-03-03T21:36:36.783Z,101119.50
2023-03-03T21:39:25.393Z,101113.88
2023-03-03T21:41:55.950Z,101113.09
2023-03-03T21:44:32.127Z,101108.63
2023-03-03T21:46:59.039Z,101102.03
2023-03-03T21:49:32.602Z,101103.84
2023-03-03T21:52:01.905Z,101101.44
2023-03-03T21:54:28.753Z,101108.53
2023-03-03T21:56:57.652Z,101098.59
2023-03-03T21:59:24.478Z,101094.97
2023-03-03T22:01:53.611Z,101085.69
2023-03-03T22:04:20.371Z,101094.19
2023-03-03T22:06:50.743Z,101081.59
2023-03-03T22:09:24.545Z,101077.00
2023-03-03T22:11:50.866Z,101070.81
2023-03-03T22:14:20.278Z,101067.34
2023-03-03T22:16:52.456Z,101060.84
2023-03-03T22:19:21.805Z,101048.59
2023-03-03T22:21:49.543Z,101048.78
2023-03-03T22:24:26.681Z,101044.38
2023-03-03T22:27:13.710Z,101036.19
2023-03-03T22:29:40.218Z,101028.16
2023-03-03T22:32:14.299Z,101010.00
2023-03-03T22:34:42.611Z,101017.84
2023-03-03T22:37:09.527Z,101010.88
2023-03-03T22:39:38.891Z,101007.13
2023-03-03T22:42:08.033Z,101003.69
2023-03-03T22:44:45.841Z,100994.53
2023-03-03T22:47:15.059Z,100986.50
2023-03-03T22:49:47.747Z,100968.25
2023-03-03T22:52:27.365Z,100966.75
2023-03-03T22:54:53.912Z,100967.78
2023-03-03T22:57:23.839Z,100967.81
2023-03-03T22:59:50.732Z,100964.56
2023-03-03T23:02:20.106Z,100966.28
2023-03-03T23:04:46.766Z,100966.38
2023-03-03T23:07:19.023Z,100951.84
2023-03-03T23:09:45.564Z,100946.22
2023-03-03T23:12:13.157Z,100943.72
2023-03-03T23:14:43.704Z,100945.34
2023-03-03T23:17:10.159Z,100938.66
2023-03-03T23:19:36.568Z,100939.13
2023-03-03T23:22:02.765Z,100949.38
2023-03-03T23:24:29.614Z,100948.88
2023-03-03T23:26:57.651Z,100956.91
2023-03-03T23:29:26.598Z,100953.66
2023-03-03T23:31:52.874Z,100950.13
2023-03-03T23:34:19.766Z,100943.25
2023-03-03T23:36:48.392Z,100948.50
2023-03-03T23:39:15.945Z,100947.44
2023-03-03T23:41:42.202Z,100952.50
2023-03-03T23:44:08.971Z,100944.72
2023-03-03T23:46:39.112Z,100943.66
2023-03-03T23:49:06.223Z,100942.91
2023-03-03T23:51:35.987Z,100925.03
2023-03-03T23:54:02.515Z,100939.66
2023-03-03T23:56:31.048Z,100938.13
2023-03-03T23:59:05.053Z,100938.69
